sensor_id;sensor_type;location;lat;lon;timestamp;P1;durP1;ratioP1;P2;durP2;ratioP2
7375;SDS011;3728;42.266;24.944;2023-04-24T00:01:37;7.60;;;4.53;;
7375;SDS011;3728;42.266;24.944;2023-04-24T00:04:06;4.70;;;4.13;;
7375;SDS011;3728;42.266;24.944;2023-04-24T00:06:37;7.83;;;6.27;;
7375;SDS011;3728;42.266;24.944;2023-04-24T00:09:05;61.67;;;29.10;;
7375;SDS011;3728;42.266;24.944;2023-04-24T00:11:32;78.83;;;31.17;;
7375;SDS011;3728;42.266;24.944;2023-04-24T00:14:00;66.87;;;28.27;;
7375;SDS011;3728;42.266;24.944;2023-04-24T00:16:27;41.77;;;17.40;;
7375;SDS011;3728;42.266;24.944;2023-04-24T00:18:55;33.87;;;15.37;;
7375;SDS011;3728;42.266;24.944;2023-04-24T00:21:23;50.97;;;21.13;;
7375;SDS011;3728;42.266;24.944;2023-04-24T00:23:52;51.63;;;21.97;;
7375;SDS011;3728;42.266;24.944;2023-04-24T00:26:20;221.40;;;74.27;;
7375;SDS011;3728;42.266;24.944;2023-04-24T00:28:47;147.40;;;49.70;;
7375;SDS011;3728;42.266;24.944;2023-04-24T00:31:15;240.00;;;79.77;;
7375;SDS011;3728;42.266;24.944;2023-04-24T00:33:42;208.03;;;70.53;;
7375;SDS011;3728;42.266;24.944;2023-04-24T00:36:10;231.97;;;80.50;;
7375;SDS011;3728;42.266;24.944;2023-04-24T00:38:37;410.97;;;165.50;;
7375;SDS011;3728;42.266;24.944;2023-04-24T00:41:04;315.20;;;133.83;;
7375;SDS011;3728;42.266;24.944;2023-04-24T00:43:32;226.40;;;98.33;;
7375;SDS011;3728;42.266;24.944;2023-04-24T00:46:00;98.43;;;43.23;;
7375;SDS011;3728;42.266;24.944;2023-04-24T00:48:28;64.67;;;28.47;;
7375;SDS011;3728;42.266;24.944;2023-04-24T00:50:56;91.03;;;38.60;;
7375;SDS011;3728;42.266;24.944;2023-04-24T00:53:25;125.93;;;52.20;;
7375;SDS011;3728;42.266;24.944;2023-04-24T00:55:52;50.90;;;19.53;;
7375;SDS011;3728;42.266;24.944;2023-04-24T00:58:20;46.73;;;19.27;;
7375;SDS011;3728;42.266;24.944;2023-04-24T01:00:48;47.77;;;20.47;;
7375;SDS011;3728;42.266;24.944;2023-04-24T01:03:23;45.17;;;17.87;;
7375;SDS011;3728;42.266;24.944;2023-04-24T01:05:56;34.87;;;15.70;;
7375;SDS011;3728;42.266;24.944;2023-04-24T01:08:25;33.93;;;15.90;;
7375;SDS011;3728;42.266;24.944;2023-04-24T01:10:55;41.77;;;17.60;;
7375;SDS011;3728;42.266;24.944;2023-04-24T01:13:24;39.97;;;18.80;;
7375;SDS011;3728;42.266;24.944;2023-04-24T01:15:51;44.77;;;18.00;;
7375;SDS011;3728;42.266;24.944;2023-04-24T01:18:19;42.27;;;18.63;;
7375;SDS011;3728;42.266;24.944;2023-04-24T01:20:50;33.57;;;15.47;;
7375;SDS011;3728;42.266;24.944;2023-04-24T01:23:20;22.47;;;11.33;;
7375;SDS011;3728;42.266;24.944;2023-04-24T01:25:50;13.67;;;7.17;;
7375;SDS011;3728;42.266;24.944;2023-04-24T01:28:18;9.60;;;5.80;;
7375;SDS011;3728;42.266;24.944;2023-04-24T01:30:46;7.67;;;5.93;;
7375;SDS011;3728;42.266;24.944;2023-04-24T01:33:14;10.40;;;6.43;;
7375;SDS011;3728;42.266;24.944;2023-04-24T01:35:43;15.63;;;6.17;;
7375;SDS011;3728;42.266;24.944;2023-04-24T01:38:11;9.53;;;5.77;;
7375;SDS011;3728;42.266;24.944;2023-04-24T01:40:39;7.43;;;4.97;;
7375;SDS011;3728;42.266;24.944;2023-04-24T01:43:07;8.13;;;5.47;;
7375;SDS011;3728;42.266;24.944;2023-04-24T01:45:34;17.50;;;5.53;;
7375;SDS011;3728;42.266;24.944;2023-04-24T01:48:03;15.87;;;5.70;;
7375;SDS011;3728;42.266;24.944;2023-04-24T01:50:31;12.97;;;5.47;;
7375;SDS011;3728;42.266;24.944;2023-04-24T01:52:59;13.80;;;5.33;;
7375;SDS011;3728;42.266;24.944;2023-04-24T01:55:28;13.97;;;6.03;;
7375;SDS011;3728;42.266;24.944;2023-04-24T01:57:55;8.90;;;5.13;;
7375;SDS011;3728;42.266;24.944;2023-04-24T02:00:23;13.50;;;6.20;;
7375;SDS011;3728;42.266;24.944;2023-04-24T02:02:52;9.67;;;5.83;;
7375;SDS011;3728;42.266;24.944;2023-04-24T02:05:20;9.57;;;5.40;;
7375;SDS011;3728;42.266;24.944;2023-04-24T02:07:50;11.33;;;5.57;;
7375;SDS011;3728;42.266;24.944;2023-04-24T02:10:18;11.60;;;5.17;;
7375;SDS011;3728;42.266;24.944;2023-04-24T02:12:45;13.27;;;5.57;;
7375;SDS011;3728;42.266;24.944;2023-04-24T02:15:14;14.40;;;5.70;;
7375;SDS011;3728;42.266;24.944;2023-04-24T02:17:41;10.60;;;5.50;;
7375;SDS011;3728;42.266;24.944;2023-04-24T02:20:09;12.30;;;6.23;;
7375;SDS011;3728;42.266;24.944;2023-04-24T02:22:37;11.40;;;6.20;;
7375;SDS011;3728;42.266;24.944;2023-04-24T02:25:05;11.63;;;6.57;;
7375;SDS011;3728;42.266;24.944;2023-04-24T02:27:32;12.20;;;7.07;;
7375;SDS011;3728;42.266;24.944;2023-04-24T02:30:03;11.73;;;7.10;;
7375;SDS011;3728;42.266;24.944;2023-04-24T02:32:32;12.67;;;7.33;;
7375;SDS011;3728;42.266;24.944;2023-04-24T02:35:00;13.87;;;7.73;;
7375;SDS011;3728;42.266;24.944;2023-04-24T02:37:28;12.70;;;7.83;;
7375;SDS011;3728;42.266;24.944;2023-04-24T02:39:56;15.90;;;7.80;;
7375;SDS011;3728;42.266;24.944;2023-04-24T02:42:23;14.53;;;7.93;;
7375;SDS011;3728;42.266;24.944;2023-04-24T02:44:51;14.07;;;8.57;;
7375;SDS011;3728;42.266;24.944;2023-04-24T02:47:19;13.90;;;7.90;;
7375;SDS011;3728;42.266;24.944;2023-04-24T02:49:48;12.30;;;6.13;;
7375;SDS011;3728;42.266;24.944;2023-04-24T02:52:15;13.27;;;5.60;;
7375;SDS011;3728;42.266;24.944;2023-04-24T02:54:43;32.37;;;9.03;;
7375;SDS011;3728;42.266;24.944;2023-04-24T02:57:10;25.30;;;7.87;;
7375;SDS011;3728;42.266;24.944;2023-04-24T02:59:40;9.40;;;5.90;;
7375;SDS011;3728;42.266;24.944;2023-04-24T03:02:08;15.13;;;5.60;;
7375;SDS011;3728;42.266;24.944;2023-04-24T03:04:36;14.17;;;5.70;;
7375;SDS011;3728;42.266;24.944;2023-04-24T03:07:04;16.97;;;5.93;;
7375;SDS011;3728;42.266;24.944;2023-04-24T03:09:32;8.73;;;5.50;;
7375;SDS011;3728;42.266;24.944;2023-04-24T03:11:59;11.67;;;5.83;;
7375;SDS011;3728;42.266;24.944;2023-04-24T03:14:26;10.40;;;5.27;;
7375;SDS011;3728;42.266;24.944;2023-04-24T03:16:57;14.53;;;4.80;;
7375;SDS011;3728;42.266;24.944;2023-04-24T03:19:25;14.03;;;5.60;;
7375;SDS011;3728;42.266;24.944;2023-04-24T03:22:01;9.67;;;5.40;;
7375;SDS011;3728;42.266;24.944;2023-04-24T03:24:33;10.53;;;5.57;;
7375;SDS011;3728;42.266;24.944;2023-04-24T03:27:00;14.23;;;5.23;;
7375;SDS011;3728;42.266;24.944;2023-04-24T03:29:54;10.30;;;6.07;;
7375;SDS011;3728;42.266;24.944;2023-04-24T03:32:45;7.30;;;6.37;;
7375;SDS011;3728;42.266;24.944;2023-04-24T03:35:17;11.57;;;6.83;;
7375;SDS011;3728;42.266;24.944;2023-04-24T03:37:45;12.97;;;7.93;;
7375;SDS011;3728;42.266;24.944;2023-04-24T03:40:30;14.27;;;7.47;;
7375;SDS011;3728;42.266;24.944;2023-04-24T03:43:02;15.70;;;7.60;;
7375;SDS011;3728;42.266;24.944;2023-04-24T03:45:34;16.17;;;5.90;;
7375;SDS011;3728;42.266;24.944;2023-04-24T03:48:02;30.53;;;12.00;;
7375;SDS011;3728;42.266;24.944;2023-04-24T03:50:31;49.53;;;22.87;;
7375;SDS011;3728;42.266;24.944;2023-04-24T03:52:59;51.37;;;18.70;;
7375;SDS011;3728;42.266;24.944;2023-04-24T03:55:40;45.63;;;14.07;;
7375;SDS011;3728;42.266;24.944;2023-04-24T03:58:09;35.60;;;11.83;;
7375;SDS011;3728;42.266;24.944;2023-04-24T04:00:38;41.10;;;17.67;;
7375;SDS011;3728;42.266;24.944;2023-04-24T04:03:32;50.73;;;22.60;;
7375;SDS011;3728;42.266;24.944;2023-04-24T04:06:00;65.63;;;25.30;;
7375;SDS011;3728;42.266;24.944;2023-04-24T04:08:28;50.27;;;24.30;;
7375;SDS011;3728;42.266;24.944;2023-04-24T04:10:57;42.07;;;23.07;;
7375;SDS011;3728;42.266;24.944;2023-04-24T04:13:28;37.80;;;18.53;;
7375;SDS011;3728;42.266;24.944;2023-04-24T04:15:55;51.87;;;20.03;;
7375;SDS011;3728;42.266;24.944;2023-04-24T04:18:23;34.43;;;14.80;;
7375;SDS011;3728;42.266;24.944;2023-04-24T04:20:51;27.27;;;13.87;;
7375;SDS011;3728;42.266;24.944;2023-04-24T04:23:18;28.27;;;11.33;;
7375;SDS011;3728;42.266;24.944;2023-04-24T04:26:03;13.13;;;7.13;;
7375;SDS011;3728;42.266;24.944;2023-04-24T04:29:00;12.43;;;7.47;;
7375;SDS011;3728;42.266;24.944;2023-04-24T04:31:29;13.03;;;7.53;;
7375;SDS011;3728;42.266;24.944;2023-04-24T04:34:00;15.07;;;6.57;;
7375;SDS011;3728;42.266;24.944;2023-04-24T04:36:30;12.20;;;7.07;;
7375;SDS011;3728;42.266;24.944;2023-04-24T04:39:06;14.53;;;9.30;;
7375;SDS011;3728;42.266;24.944;2023-04-24T04:41:51;17.00;;;9.53;;
7375;SDS011;3728;42.266;24.944;2023-04-24T04:44:22;15.00;;;7.93;;
7375;SDS011;3728;42.266;24.944;2023-04-24T04:46:50;20.70;;;14.10;;
7375;SDS011;3728;42.266;24.944;2023-04-24T04:49:28;20.57;;;10.60;;
7375;SDS011;3728;42.266;24.944;2023-04-24T04:51:57;13.83;;;6.47;;
7375;SDS011;3728;42.266;24.944;2023-04-24T04:54:26;9.57;;;5.57;;
7375;SDS011;3728;42.266;24.944;2023-04-24T04:56:55;10.43;;;5.17;;
7375;SDS011;3728;42.266;24.944;2023-04-24T04:59:23;18.43;;;5.73;;
7375;SDS011;3728;42.266;24.944;2023-04-24T05:01:57;7.53;;;4.80;;
7375;SDS011;3728;42.266;24.944;2023-04-24T05:04:25;16.80;;;4.83;;
7375;SDS011;3728;42.266;24.944;2023-04-24T05:06:53;20.03;;;5.37;;
7375;SDS011;3728;42.266;24.944;2023-04-24T05:09:22;18.10;;;9.57;;
7375;SDS011;3728;42.266;24.944;2023-04-24T05:11:53;27.60;;;13.40;;
7375;SDS011;3728;42.266;24.944;2023-04-24T05:14:22;32.20;;;13.77;;
7375;SDS011;3728;42.266;24.944;2023-04-24T05:16:50;41.37;;;19.13;;
7375;SDS011;3728;42.266;24.944;2023-04-24T05:19:20;21.03;;;10.30;;
7375;SDS011;3728;42.266;24.944;2023-04-24T05:21:47;10.17;;;5.97;;
7375;SDS011;3728;42.266;24.944;2023-04-24T05:24:15;17.40;;;7.00;;
7375;SDS011;3728;42.266;24.944;2023-04-24T05:27:03;11.47;;;6.17;;
7375;SDS011;3728;42.266;24.944;2023-04-24T05:29:36;7.50;;;4.63;;
7375;SDS011;3728;42.266;24.944;2023-04-24T05:32:05;9.13;;;5.37;;
7375;SDS011;3728;42.266;24.944;2023-04-24T05:34:33;9.07;;;4.60;;
7375;SDS011;3728;42.266;24.944;2023-04-24T05:37:01;5.37;;;4.03;;
7375;SDS011;3728;42.266;24.944;2023-04-24T05:39:30;7.73;;;4.50;;
7375;SDS011;3728;42.266;24.944;2023-04-24T05:41:58;9.80;;;4.63;;
7375;SDS011;3728;42.266;24.944;2023-04-24T05:44:27;7.73;;;5.00;;
7375;SDS011;3728;42.266;24.944;2023-04-24T05:46:55;5.77;;;4.30;;
7375;SDS011;3728;42.266;24.944;2023-04-24T05:49:23;9.63;;;6.30;;
7375;SDS011;3728;42.266;24.944;2023-04-24T05:51:51;9.43;;;6.33;;
7375;SDS011;3728;42.266;24.944;2023-04-24T05:54:18;10.33;;;6.30;;
7375;SDS011;3728;42.266;24.944;2023-04-24T05:56:46;11.50;;;7.07;;
7375;SDS011;3728;42.266;24.944;2023-04-24T05:59:20;10.87;;;7.90;;
7375;SDS011;3728;42.266;24.944;2023-04-24T06:01:50;8.77;;;6.57;;
7375;SDS011;3728;42.266;24.944;2023-04-24T06:04:19;11.83;;;6.67;;
7375;SDS011;3728;42.266;24.944;2023-04-24T06:06:48;7.70;;;5.17;;
7375;SDS011;3728;42.266;24.944;2023-04-24T06:09:17;8.73;;;4.60;;
7375;SDS011;3728;42.266;24.944;2023-04-24T06:11:44;8.40;;;5.00;;
7375;SDS011;3728;42.266;24.944;2023-04-24T06:14:13;7.10;;;4.63;;
7375;SDS011;3728;42.266;24.944;2023-04-24T06:16:59;6.30;;;4.07;;
7375;SDS011;3728;42.266;24.944;2023-04-24T06:19:33;7.73;;;4.93;;
7375;SDS011;3728;42.266;24.944;2023-04-24T06:22:01;15.60;;;4.70;;
7375;SDS011;3728;42.266;24.944;2023-04-24T06:24:29;8.00;;;4.33;;
7375;SDS011;3728;42.266;24.944;2023-04-24T06:26:57;7.30;;;4.47;;
7375;SDS011;3728;42.266;24.944;2023-04-24T06:29:27;10.40;;;4.57;;
7375;SDS011;3728;42.266;24.944;2023-04-24T06:31:54;8.63;;;4.83;;
7375;SDS011;3728;42.266;24.944;2023-04-24T06:34:22;5.40;;;3.90;;
7375;SDS011;3728;42.266;24.944;2023-04-24T06:36:50;8.57;;;4.43;;
7375;SDS011;3728;42.266;24.944;2023-04-24T06:39:17;5.00;;;4.10;;
7375;SDS011;3728;42.266;24.944;2023-04-24T06:41:45;8.50;;;4.50;;
7375;SDS011;3728;42.266;24.944;2023-04-24T06:44:18;7.33;;;4.43;;
7375;SDS011;3728;42.266;24.944;2023-04-24T06:46:46;11.93;;;4.53;;
7375;SDS011;3728;42.266;24.944;2023-04-24T06:49:13;7.57;;;4.50;;
7375;SDS011;3728;42.266;24.944;2023-04-24T06:51:42;9.37;;;4.27;;
7375;SDS011;3728;42.266;24.944;2023-04-24T06:54:09;8.53;;;3.97;;
7375;SDS011;3728;42.266;24.944;2023-04-24T06:56:37;8.50;;;4.23;;
7375;SDS011;3728;42.266;24.944;2023-04-24T06:59:04;7.37;;;4.40;;
7375;SDS011;3728;42.266;24.944;2023-04-24T07:01:32;6.57;;;3.93;;
7375;SDS011;3728;42.266;24.944;2023-04-24T07:03:59;6.80;;;4.17;;
7375;SDS011;3728;42.266;24.944;2023-04-24T07:06:28;10.33;;;4.90;;
7375;SDS011;3728;42.266;24.944;2023-04-24T07:08:58;5.53;;;4.03;;
7375;SDS011;3728;42.266;24.944;2023-04-24T07:11:27;6.73;;;4.30;;
7375;SDS011;3728;42.266;24.944;2023-04-24T07:13:55;6.63;;;4.50;;
7375;SDS011;3728;42.266;24.944;2023-04-24T07:16:23;11.77;;;4.10;;
7375;SDS011;3728;42.266;24.944;2023-04-24T07:18:50;8.17;;;4.17;;
7375;SDS011;3728;42.266;24.944;2023-04-24T07:21:18;4.80;;;4.07;;
7375;SDS011;3728;42.266;24.944;2023-04-24T07:23:46;6.67;;;4.23;;
7375;SDS011;3728;42.266;24.944;2023-04-24T07:26:13;5.53;;;4.20;;
7375;SDS011;3728;42.266;24.944;2023-04-24T07:28:41;7.47;;;4.53;;
7375;SDS011;3728;42.266;24.944;2023-04-24T07:31:08;6.53;;;4.00;;
7375;SDS011;3728;42.266;24.944;2023-04-24T07:33:38;8.63;;;4.80;;
7375;SDS011;3728;42.266;24.944;2023-04-24T07:36:06;5.53;;;3.93;;
7375;SDS011;3728;42.266;24.944;2023-04-24T07:38:33;5.77;;;4.20;;
7375;SDS011;3728;42.266;24.944;2023-04-24T07:41:01;10.37;;;4.73;;
7375;SDS011;3728;42.266;24.944;2023-04-24T07:43:28;10.13;;;4.20;;
7375;SDS011;3728;42.266;24.944;2023-04-24T07:45:56;8.30;;;4.83;;
7375;SDS011;3728;42.266;24.944;2023-04-24T07:48:23;8.87;;;5.00;;
7375;SDS011;3728;42.266;24.944;2023-04-24T07:50:53;7.03;;;5.03;;
7375;SDS011;3728;42.266;24.944;2023-04-24T07:53:20;8.70;;;4.57;;
7375;SDS011;3728;42.266;24.944;2023-04-24T07:55:48;5.33;;;4.83;;
7375;SDS011;3728;42.266;24.944;2023-04-24T07:58:16;7.57;;;4.87;;
7375;SDS011;3728;42.266;24.944;2023-04-24T08:00:43;7.37;;;5.40;;
7375;SDS011;3728;42.266;24.944;2023-04-24T08:03:11;6.63;;;5.20;;
7375;SDS011;3728;42.266;24.944;2023-04-24T08:05:39;11.43;;;5.70;;
7375;SDS011;3728;42.266;24.944;2023-04-24T08:08:09;8.33;;;4.70;;
7375;SDS011;3728;42.266;24.944;2023-04-24T08:10:37;6.70;;;5.43;;
7375;SDS011;3728;42.266;24.944;2023-04-24T08:13:04;9.00;;;5.80;;
7375;SDS011;3728;42.266;24.944;2023-04-24T08:15:32;9.33;;;4.80;;
7375;SDS011;3728;42.266;24.944;2023-04-24T08:17:59;8.23;;;5.20;;
7375;SDS011;3728;42.266;24.944;2023-04-24T08:20:27;6.07;;;5.27;;
7375;SDS011;3728;42.266;24.944;2023-04-24T08:22:54;7.20;;;5.00;;
7375;SDS011;3728;42.266;24.944;2023-04-24T08:25:22;8.57;;;4.60;;
7375;SDS011;3728;42.266;24.944;2023-04-24T08:27:51;6.43;;;5.27;;
7375;SDS011;3728;42.266;24.944;2023-04-24T08:30:18;10.93;;;5.10;;
7375;SDS011;3728;42.266;24.944;2023-04-24T08:32:48;9.23;;;5.87;;
7375;SDS011;3728;42.266;24.944;2023-04-24T08:35:16;6.97;;;4.97;;
7375;SDS011;3728;42.266;24.944;2023-04-24T08:37:44;10.43;;;4.97;;
7375;SDS011;3728;42.266;24.944;2023-04-24T08:40:15;8.07;;;4.90;;
7375;SDS011;3728;42.266;24.944;2023-04-24T08:42:43;10.40;;;5.60;;
7375;SDS011;3728;42.266;24.944;2023-04-24T08:45:12;8.93;;;5.27;;
7375;SDS011;3728;42.266;24.944;2023-04-24T08:47:40;7.60;;;5.20;;
7375;SDS011;3728;42.266;24.944;2023-04-24T08:50:10;12.87;;;5.00;;
7375;SDS011;3728;42.266;24.944;2023-04-24T08:52:39;9.07;;;4.70;;
7375;SDS011;3728;42.266;24.944;2023-04-24T08:55:07;7.60;;;4.90;;
7375;SDS011;3728;42.266;24.944;2023-04-24T08:57:35;6.37;;;4.73;;
7375;SDS011;3728;42.266;24.944;2023-04-24T09:00:06;11.00;;;4.30;;
7375;SDS011;3728;42.266;24.944;2023-04-24T09:02:39;7.30;;;4.60;;
7375;SDS011;3728;42.266;24.944;2023-04-24T09:05:13;6.57;;;4.60;;
7375;SDS011;3728;42.266;24.944;2023-04-24T09:07:53;6.30;;;3.90;;
7375;SDS011;3728;42.266;24.944;2023-04-24T09:10:25;4.90;;;4.30;;
7375;SDS011;3728;42.266;24.944;2023-04-24T09:12:54;6.23;;;4.43;;
7375;SDS011;3728;42.266;24.944;2023-04-24T09:15:27;6.10;;;4.33;;
7375;SDS011;3728;42.266;24.944;2023-04-24T09:17:55;5.77;;;3.80;;
7375;SDS011;3728;42.266;24.944;2023-04-24T09:20:22;5.13;;;4.10;;
7375;SDS011;3728;42.266;24.944;2023-04-24T09:22:53;7.77;;;4.30;;
7375;SDS011;3728;42.266;24.944;2023-04-24T09:25:22;10.03;;;4.43;;
7375;SDS011;3728;42.266;24.944;2023-04-24T09:27:53;5.60;;;4.33;;
7375;SDS011;3728;42.266;24.944;2023-04-24T09:30:21;5.97;;;4.17;;
7375;SDS011;3728;42.266;24.944;2023-04-24T09:32:49;11.53;;;4.97;;
7375;SDS011;3728;42.266;24.944;2023-04-24T09:35:28;10.70;;;5.00;;
7375;SDS011;3728;42.266;24.944;2023-04-24T09:37:56;6.57;;;4.20;;
7375;SDS011;3728;42.266;24.944;2023-04-24T09:40:24;4.57;;;3.70;;
7375;SDS011;3728;42.266;24.944;2023-04-24T09:42:53;8.27;;;4.73;;
7375;SDS011;3728;42.266;24.944;2023-04-24T09:45:35;5.00;;;4.17;;
7375;SDS011;3728;42.266;24.944;2023-04-24T09:48:05;7.57;;;4.37;;
7375;SDS011;3728;42.266;24.944;2023-04-24T09:50:36;6.47;;;4.63;;
7375;SDS011;3728;42.266;24.944;2023-04-24T09:53:05;4.23;;;3.60;;
7375;SDS011;3728;42.266;24.944;2023-04-24T09:55:42;5.20;;;3.90;;
7375;SDS011;3728;42.266;24.944;2023-04-24T09:58:14;5.93;;;3.80;;
7375;SDS011;3728;42.266;24.944;2023-04-24T10:00:42;6.60;;;3.40;;
7375;SDS011;3728;42.266;24.944;2023-04-24T10:03:09;5.47;;;3.63;;
7375;SDS011;3728;42.266;24.944;2023-04-24T10:05:41;6.13;;;3.90;;
7375;SDS011;3728;42.266;24.944;2023-04-24T10:08:10;7.77;;;3.80;;
7375;SDS011;3728;42.266;24.944;2023-04-24T10:10:43;3.70;;;3.37;;
7375;SDS011;3728;42.266;24.944;2023-04-24T10:13:12;5.77;;;3.80;;
7375;SDS011;3728;42.266;24.944;2023-04-24T10:15:45;5.33;;;3.30;;
7375;SDS011;3728;42.266;24.944;2023-04-24T10:18:16;5.65;;;3.67;;
7375;SDS011;3728;42.266;24.944;2023-04-24T10:20:45;4.75;;;3.35;;
7375;SDS011;3728;42.266;24.944;2023-04-24T10:23:12;3.45;;;2.90;;
7375;SDS011;3728;42.266;24.944;2023-04-24T10:25:40;5.45;;;3.58;;
7375;SDS011;3728;42.266;24.944;2023-04-24T10:28:08;4.97;;;3.60;;
7375;SDS011;3728;42.266;24.944;2023-04-24T10:30:37;4.93;;;3.63;;
7375;SDS011;3728;42.266;24.944;2023-04-24T10:33:09;5.90;;;3.35;;
7375;SDS011;3728;42.266;24.944;2023-04-24T10:35:40;3.58;;;2.85;;
7375;SDS011;3728;42.266;24.944;2023-04-24T10:38:14;3.75;;;2.88;;
7375;SDS011;3728;42.266;24.944;2023-04-24T10:41:14;5.45;;;2.95;;
7375;SDS011;3728;42.266;24.944;2023-04-24T10:43:45;4.45;;;3.10;;
7375;SDS011;3728;42.266;24.944;2023-04-24T10:46:19;3.28;;;2.85;;
7375;SDS011;3728;42.266;24.944;2023-04-24T10:48:54;3.45;;;2.97;;
7375;SDS011;3728;42.266;24.944;2023-04-24T10:51:23;3.20;;;2.88;;
7375;SDS011;3728;42.266;24.944;2023-04-24T10:54:24;4.13;;;3.00;;
7375;SDS011;3728;42.266;24.944;2023-04-24T11:02:47;3.13;;;2.78;;
7375;SDS011;3728;42.266;24.944;2023-04-24T11:05:18;4.57;;;3.05;;
7375;SDS011;3728;42.266;24.944;2023-04-24T11:14:05;3.85;;;2.75;;
7375;SDS011;3728;42.266;24.944;2023-04-24T11:16:28;6.13;;;2.80;;
7375;SDS011;3728;42.266;24.944;2023-04-24T11:19:08;3.78;;;3.13;;
7375;SDS011;3728;42.266;24.944;2023-04-24T11:27:20;4.55;;;2.65;;
7375;SDS011;3728;42.266;24.944;2023-04-24T11:34:59;6.60;;;3.00;;
7375;SDS011;3728;42.266;24.944;2023-04-24T11:37:39;5.85;;;2.95;;
7375;SDS011;3728;42.266;24.944;2023-04-24T11:40:11;5.53;;;2.90;;
7375;SDS011;3728;42.266;24.944;2023-04-24T11:42:46;4.60;;;2.80;;
7375;SDS011;3728;42.266;24.944;2023-04-24T11:45:17;4.40;;;3.10;;
7375;SDS011;3728;42.266;24.944;2023-04-24T11:47:54;4.07;;;2.67;;
7375;SDS011;3728;42.266;24.944;2023-04-24T11:50:22;3.08;;;2.78;;
7375;SDS011;3728;42.266;24.944;2023-04-24T11:52:54;4.60;;;3.00;;
7375;SDS011;3728;42.266;24.944;2023-04-24T11:57:55;3.08;;;2.65;;
7375;SDS011;3728;42.266;24.944;2023-04-24T12:05:38;3.20;;;2.83;;
7375;SDS011;3728;42.266;24.944;2023-04-24T12:08:07;3.70;;;2.80;;
7375;SDS011;3728;42.266;24.944;2023-04-24T12:10:35;3.25;;;2.70;;
7375;SDS011;3728;42.266;24.944;2023-04-24T12:13:03;3.85;;;3.10;;
7375;SDS011;3728;42.266;24.944;2023-04-24T12:15:31;2.75;;;2.50;;
7375;SDS011;3728;42.266;24.944;2023-04-24T12:17:59;2.90;;;2.70;;
7375;SDS011;3728;42.266;24.944;2023-04-24T12:20:27;4.18;;;2.70;;
7375;SDS011;3728;42.266;24.944;2023-04-24T12:22:58;4.43;;;2.90;;
7375;SDS011;3728;42.266;24.944;2023-04-24T12:28:16;3.45;;;2.83;;
7375;SDS011;3728;42.266;24.944;2023-04-24T12:30:44;3.35;;;2.80;;
7375;SDS011;3728;42.266;24.944;2023-04-24T12:33:19;2.83;;;2.53;;
7375;SDS011;3728;42.266;24.944;2023-04-24T12:35:48;4.82;;;3.15;;
7375;SDS011;3728;42.266;24.944;2023-04-24T12:38:22;4.90;;;2.70;;
7375;SDS011;3728;42.266;24.944;2023-04-24T12:43:50;3.25;;;2.95;;
7375;SDS011;3728;42.266;24.944;2023-04-24T12:46:19;4.05;;;2.97;;
7375;SDS011;3728;42.266;24.944;2023-04-24T12:48:48;4.28;;;2.88;;
7375;SDS011;3728;42.266;24.944;2023-04-24T12:51:16;5.18;;;3.05;;
7375;SDS011;3728;42.266;24.944;2023-04-24T12:53:43;3.15;;;2.65;;
7375;SDS011;3728;42.266;24.944;2023-04-24T12:56:11;3.85;;;2.85;;
7375;SDS011;3728;42.266;24.944;2023-04-24T12:58:38;5.75;;;2.88;;
7375;SDS011;3728;42.266;24.944;2023-04-24T13:01:06;5.47;;;3.25;;
7375;SDS011;3728;42.266;24.944;2023-04-24T13:03:33;4.22;;;2.88;;
7375;SDS011;3728;42.266;24.944;2023-04-24T13:06:02;6.68;;;3.45;;
7375;SDS011;3728;42.266;24.944;2023-04-24T13:08:29;4.68;;;3.17;;
7375;SDS011;3728;42.266;24.944;2023-04-24T13:10:57;4.75;;;2.58;;
7375;SDS011;3728;42.266;24.944;2023-04-24T13:13:24;4.60;;;2.58;;
7375;SDS011;3728;42.266;24.944;2023-04-24T13:15:52;6.47;;;2.72;;
7375;SDS011;3728;42.266;24.944;2023-04-24T13:18:20;4.00;;;2.90;;
7375;SDS011;3728;42.266;24.944;2023-04-24T13:20:47;2.78;;;2.45;;
7375;SDS011;3728;42.266;24.944;2023-04-24T13:23:15;7.03;;;2.85;;
7375;SDS011;3728;42.266;24.944;2023-04-24T13:25:43;3.70;;;2.55;;
7375;SDS011;3728;42.266;24.944;2023-04-24T13:28:11;7.20;;;2.53;;
7375;SDS011;3728;42.266;24.944;2023-04-24T13:30:38;3.65;;;2.85;;
7375;SDS011;3728;42.266;24.944;2023-04-24T13:33:06;4.55;;;2.83;;
7375;SDS011;3728;42.266;24.944;2023-04-24T13:35:33;4.13;;;2.80;;
7375;SDS011;3728;42.266;24.944;2023-04-24T13:38:01;7.25;;;2.65;;
7375;SDS011;3728;42.266;24.944;2023-04-24T13:40:32;2.58;;;2.30;;
7375;SDS011;3728;42.266;24.944;2023-04-24T13:43:00;3.55;;;2.60;;
7375;SDS011;3728;42.266;24.944;2023-04-24T13:45:28;5.38;;;2.63;;
7375;SDS011;3728;42.266;24.944;2023-04-24T13:47:55;3.53;;;2.72;;
7375;SDS011;3728;42.266;24.944;2023-04-24T13:50:23;6.00;;;2.70;;
7375;SDS011;3728;42.266;24.944;2023-04-24T13:52:51;3.78;;;2.47;;
7375;SDS011;3728;42.266;24.944;2023-04-24T13:55:19;4.53;;;2.58;;
7375;SDS011;3728;42.266;24.944;2023-04-24T13:57:47;6.85;;;2.50;;
7375;SDS011;3728;42.266;24.944;2023-04-24T14:00:15;3.10;;;2.75;;
7375;SDS011;3728;42.266;24.944;2023-04-24T14:02:44;3.33;;;2.50;;
7375;SDS011;3728;42.266;24.944;2023-04-24T14:05:12;3.22;;;2.50;;
7375;SDS011;3728;42.266;24.944;2023-04-24T14:07:41;6.70;;;2.80;;
7375;SDS011;3728;42.266;24.944;2023-04-24T14:10:09;4.75;;;2.72;;
7375;SDS011;3728;42.266;24.944;2023-04-24T14:12:36;3.55;;;2.58;;
7375;SDS011;3728;42.266;24.944;2023-04-24T14:15:07;3.55;;;2.60;;
7375;SDS011;3728;42.266;24.944;2023-04-24T14:17:35;3.13;;;2.15;;
7375;SDS011;3728;42.266;24.944;2023-04-24T14:20:03;6.13;;;2.65;;
7375;SDS011;3728;42.266;24.944;2023-04-24T14:22:33;3.25;;;2.55;;
7375;SDS011;3728;42.266;24.944;2023-04-24T14:25:01;6.28;;;2.75;;
7375;SDS011;3728;42.266;24.944;2023-04-24T14:27:28;2.67;;;2.45;;
7375;SDS011;3728;42.266;24.944;2023-04-24T14:29:56;3.30;;;2.70;;
7375;SDS011;3728;42.266;24.944;2023-04-24T14:32:24;4.90;;;3.00;;
7375;SDS011;3728;42.266;24.944;2023-04-24T14:34:52;3.40;;;2.47;;
7375;SDS011;3728;42.266;24.944;2023-04-24T14:37:19;5.18;;;2.85;;
7375;SDS011;3728;42.266;24.944;2023-04-24T14:39:47;2.60;;;2.40;;
7375;SDS011;3728;42.266;24.944;2023-04-24T14:42:35;3.00;;;2.50;;
7375;SDS011;3728;42.266;24.944;2023-04-24T14:45:02;5.20;;;2.70;;
7375;SDS011;3728;42.266;24.944;2023-04-24T14:47:30;4.22;;;2.13;;
7375;SDS011;3728;42.266;24.944;2023-04-24T14:49:58;2.35;;;2.15;;
7375;SDS011;3728;42.266;24.944;2023-04-24T14:52:26;7.65;;;2.72;;
7375;SDS011;3728;42.266;24.944;2023-04-24T14:54:54;4.53;;;2.53;;
7375;SDS011;3728;42.266;24.944;2023-04-24T14:57:22;6.68;;;2.45;;
7375;SDS011;3728;42.266;24.944;2023-04-24T14:59:50;2.65;;;2.38;;
7375;SDS011;3728;42.266;24.944;2023-04-24T15:02:17;5.30;;;2.40;;
7375;SDS011;3728;42.266;24.944;2023-04-24T15:04:48;4.25;;;2.38;;
7375;SDS011;3728;42.266;24.944;2023-04-24T15:07:16;2.80;;;2.30;;
7375;SDS011;3728;42.266;24.944;2023-04-24T15:09:43;6.25;;;2.58;;
7375;SDS011;3728;42.266;24.944;2023-04-24T15:12:13;2.60;;;2.40;;
7375;SDS011;3728;42.266;24.944;2023-04-24T15:14:41;2.28;;;2.08;;
7375;SDS011;3728;42.266;24.944;2023-04-24T15:17:11;3.85;;;2.50;;
7375;SDS011;3728;42.266;24.944;2023-04-24T15:19:39;4.47;;;2.40;;
7375;SDS011;3728;42.266;24.944;2023-04-24T15:22:06;2.40;;;2.10;;
7375;SDS011;3728;42.266;24.944;2023-04-24T15:24:35;4.30;;;2.55;;
7375;SDS011;3728;42.266;24.944;2023-04-24T15:27:02;6.50;;;2.55;;
7375;SDS011;3728;42.266;24.944;2023-04-24T15:29:32;3.30;;;2.47;;
7375;SDS011;3728;42.266;24.944;2023-04-24T15:32:01;3.33;;;2.28;;
7375;SDS011;3728;42.266;24.944;2023-04-24T15:34:28;4.18;;;2.50;;
7375;SDS011;3728;42.266;24.944;2023-04-24T15:36:58;2.47;;;2.38;;
7375;SDS011;3728;42.266;24.944;2023-04-24T15:39:26;3.47;;;2.30;;
7375;SDS011;3728;42.266;24.944;2023-04-24T15:41:54;3.13;;;2.60;;
7375;SDS011;3728;42.266;24.944;2023-04-24T15:44:22;3.50;;;2.80;;